sensor_id;sensor_type;location;lat;lon;timestamp;pressure;altitude;pressure_sealevel;temperature;humidity
81387;BME280;70842;50.744;7.114;2023-07-30T00:00:26;100550.19;;;19.02;75.36
81387;BME280;70842;50.744;7.114;2023-07-30T00:02:53;100546.66;;;18.87;76.23
81387;BME280;70842;50.744;7.114;2023-07-30T00:05:20;100551.66;;;18.90;76.53
81387;BME280;70842;50.744;7.114;2023-07-30T00:07:46;100548.69;;;18.85;77.13
81387;BME280;70842;50.744;7.114;2023-07-30T00:10:12;100549.03;;;18.82;76.50
81387;BME280;70842;50.744;7.114;2023-07-30T00:12:39;100549.34;;;18.87;75.70
81387;BME280;70842;50.744;7.114;2023-07-30T00:15:07;100547.16;;;18.68;75.63
81387;BME280;70842;50.744;7.114;2023-07-30T00:17:36;100556.25;;;18.59;76.38
81387;BME280;70842;50.744;7.114;2023-07-30T00:20:03;100557.69;;;18.69;76.28
81387;BME280;70842;50.744;7.114;2023-07-30T00:22:31;100550.94;;;18.74;76.16
81387;BME280;70842;50.744;7.114;2023-07-30T00:24:57;100549.13;;;18.74;75.72
81387;BME280;70842;50.744;7.114;2023-07-30T00:27:24;100550.22;;;18.80;75.71
81387;BME280;70842;50.744;7.114;2023-07-30T00:29:50;100556.38;;;18.65;76.13
81387;BME280;70842;50.744;7.114;2023-07-30T00:32:16;100548.47;;;18.72;75.17
81387;BME280;70842;50.744;7.114;2023-07-30T00:34:43;100557.16;;;18.74;75.82
81387;BME280;70842;50.744;7.114;2023-07-30T00:37:10;100550.47;;;18.93;75.13
81387;BME280;70842;50.744;7.114;2023-07-30T00:39:36;100553.09;;;18.78;76.18
81387;BME280;70842;50.744;7.114;2023-07-30T00:42:03;100555.19;;;18.68;75.51
81387;BME280;70842;50.744;7.114;2023-07-30T00:44:29;100555.97;;;18.77;76.13
81387;BME280;70842;50.744;7.114;2023-07-30T00:46:56;100550.44;;;18.55;76.73
81387;BME280;70842;50.744;7.114;2023-07-30T00:49:22;100555.47;;;18.50;76.10
81387;BME280;70842;50.744;7.114;2023-07-30T00:51:49;100559.34;;;18.48;76.12
81387;BME280;70842;50.744;7.114;2023-07-30T00:54:18;100563.22;;;18.45;75.77
81387;BME280;70842;50.744;7.114;2023-07-30T00:56:50;100556.31;;;18.43;75.75
81387;BME280;70842;50.744;7.114;2023-07-30T00:59:18;100554.66;;;18.42;75.84
81387;BME280;70842;50.744;7.114;2023-07-30T01:01:46;100556.50;;;18.41;75.98
81387;BME280;70842;50.744;7.114;2023-07-30T01:04:16;100564.56;;;18.41;76.30
81387;BME280;70842;50.744;7.114;2023-07-30T01:06:42;100557.22;;;18.35;76.92
81387;BME280;70842;50.744;7.114;2023-07-30T01:09:10;100566.44;;;18.33;77.00
81387;BME280;70842;50.744;7.114;2023-07-30T01:11:38;100557.00;;;18.14;76.72
81387;BME280;70842;50.744;7.114;2023-07-30T01:14:06;100557.66;;;18.16;76.53
81387;BME280;70842;50.744;7.114;2023-07-30T01:16:34;100565.66;;;18.24;76.88
81387;BME280;70842;50.744;7.114;2023-07-30T01:19:00;100571.19;;;18.23;77.64
81387;BME280;70842;50.744;7.114;2023-07-30T01:21:36;100574.88;;;18.22;77.61
81387;BME280;70842;50.744;7.114;2023-07-30T01:24:03;100584.94;;;18.28;77.38
81387;BME280;70842;50.744;7.114;2023-07-30T01:26:54;100589.06;;;18.38;76.69
81387;BME280;70842;50.744;7.114;2023-07-30T01:29:24;100590.31;;;18.28;77.37
81387;BME280;70842;50.744;7.114;2023-07-30T01:31:57;100588.97;;;18.24;77.07
81387;BME280;70842;50.744;7.114;2023-07-30T01:34:28;100592.66;;;18.23;77.02
81387;BME280;70842;50.744;7.114;2023-07-30T01:36:57;100599.44;;;18.03;76.71
81387;BME280;70842;50.744;7.114;2023-07-30T01:39:24;100602.66;;;17.98;77.33
81387;BME280;70842;50.744;7.114;2023-07-30T01:41:53;100595.94;;;18.02;76.56
81387;BME280;70842;50.744;7.114;2023-07-30T01:44:20;100603.22;;;17.85;77.26
81387;BME280;70842;50.744;7.114;2023-07-30T01:46:46;100604.13;;;18.09;76.30
81387;BME280;70842;50.744;7.114;2023-07-30T01:49:13;100606.31;;;18.05;76.79
81387;BME280;70842;50.744;7.114;2023-07-30T01:51:39;100603.50;;;17.90;76.99
81387;BME280;70842;50.744;7.114;2023-07-30T01:54:05;100611.91;;;17.79;75.86
81387;BME280;70842;50.744;7.114;2023-07-30T01:56:32;100608.91;;;17.82;77.06
81387;BME280;70842;50.744;7.114;2023-07-30T01:58:58;100612.72;;;17.88;76.40
81387;BME280;70842;50.744;7.114;2023-07-30T02:01:25;100603.16;;;18.02;75.62
81387;BME280;70842;50.744;7.114;2023-07-30T02:03:51;100597.84;;;18.24;74.92
81387;BME280;70842;50.744;7.114;2023-07-30T02:06:18;100606.25;;;18.13;75.07
81387;BME280;70842;50.744;7.114;2023-07-30T02:08:44;100600.00;;;17.98;75.16
81387;BME280;70842;50.744;7.114;2023-07-30T02:11:10;100597.16;;;17.91;74.44
81387;BME280;70842;50.744;7.114;2023-07-30T02:13:37;100596.75;;;18.03;74.31
81387;BME280;70842;50.744;7.114;2023-07-30T02:16:03;100591.41;;;18.03;74.91
81387;BME280;70842;50.744;7.114;2023-07-30T02:18:30;100594.06;;;18.03;73.63
81387;BME280;70842;50.744;7.114;2023-07-30T02:20:56;100593.09;;;18.04;73.53
81387;BME280;70842;50.744;7.114;2023-07-30T02:23:23;100594.44;;;18.00;73.90
81387;BME280;70842;50.744;7.114;2023-07-30T02:25:49;100595.03;;;18.18;73.11
81387;BME280;70842;50.744;7.114;2023-07-30T02:28:16;100598.06;;;18.15;73.28
81387;BME280;70842;50.744;7.114;2023-07-30T02:30:42;100601.69;;;18.30;73.05
81387;BME280;70842;50.744;7.114;2023-07-30T02:33:09;100592.91;;;18.44;72.25
81387;BME280;70842;50.744;7.114;2023-07-30T02:35:36;100605.88;;;18.24;72.91
81387;BME280;70842;50.744;7.114;2023-07-30T02:38:03;100601.47;;;18.39;73.19
81387;BME280;70842;50.744;7.114;2023-07-30T02:40:29;100599.06;;;18.52;74.46
81387;BME280;70842;50.744;7.114;2023-07-30T02:42:57;100603.66;;;17.97;77.56
81387;BME280;70842;50.744;7.114;2023-07-30T02:45:23;100605.19;;;17.91;78.90
81387;BME280;70842;50.744;7.114;2023-07-30T02:47:49;100609.09;;;17.81;79.54
81387;BME280;70842;50.744;7.114;2023-07-30T02:50:16;100604.91;;;17.78;79.88
81387;BME280;70842;50.744;7.114;2023-07-30T02:52:46;100599.91;;;17.67;79.81
81387;BME280;70842;50.744;7.114;2023-07-30T02:55:12;100598.59;;;17.55;80.84
81387;BME280;70842;50.744;7.114;2023-07-30T02:57:39;100600.09;;;17.66;81.00
81387;BME280;70842;50.744;7.114;2023-07-30T03:00:05;100594.91;;;17.56;79.86
81387;BME280;70842;50.744;7.114;2023-07-30T03:02:32;100604.28;;;17.36;80.58
81387;BME280;70842;50.744;7.114;2023-07-30T03:04:59;100606.13;;;17.60;79.79
81387;BME280;70842;50.744;7.114;2023-07-30T03:07:25;100606.94;;;17.68;78.91
81387;BME280;70842;50.744;7.114;2023-07-30T03:09:52;100605.94;;;17.69;78.22
81387;BME280;70842;50.744;7.114;2023-07-30T03:12:18;100611.81;;;17.41;78.83
81387;BME280;70842;50.744;7.114;2023-07-30T03:14:44;100608.56;;;17.77;78.69
81387;BME280;70842;50.744;7.114;2023-07-30T03:17:11;100610.19;;;17.94;78.02
81387;BME280;70842;50.744;7.114;2023-07-30T03:19:37;100626.19;;;17.48;79.12
81387;BME280;70842;50.744;7.114;2023-07-30T03:22:04;100628.22;;;17.54;78.51
81387;BME280;70842;50.744;7.114;2023-07-30T03:24:30;100625.38;;;17.47;78.24
81387;BME280;70842;50.744;7.114;2023-07-30T03:26:56;100628.06;;;17.63;77.74
81387;BME280;70842;50.744;7.114;2023-07-30T03:29:23;100632.75;;;17.53;78.60
81387;BME280;70842;50.744;7.114;2023-07-30T03:31:49;100626.38;;;17.38;78.89
81387;BME280;70842;50.744;7.114;2023-07-30T03:34:16;100632.72;;;17.69;77.47
81387;BME280;70842;50.744;7.114;2023-07-30T03:36:42;100635.44;;;17.53;77.69
81387;BME280;70842;50.744;7.114;2023-07-30T03:39:08;100629.19;;;17.85;76.47
81387;BME280;70842;50.744;7.114;2023-07-30T03:41:35;100632.06;;;17.67;76.98
81387;BME280;70842;50.744;7.114;2023-07-30T03:44:02;100615.72;;;18.01;76.50
81387;BME280;70842;50.744;7.114;2023-07-30T03:46:28;100630.66;;;17.96;76.11
81387;BME280;70842;50.744;7.114;2023-07-30T03:48:55;100626.94;;;18.05;76.51
81387;BME280;70842;50.744;7.114;2023-07-30T03:51:21;100626.53;;;18.16;76.13
81387;BME280;70842;50.744;7.114;2023-07-30T03:53:48;100633.50;;;18.02;76.10
81387;BME280;70842;50.744;7.114;2023-07-30T03:56:14;100628.59;;;18.06;76.85
81387;BME280;70842;50.744;7.114;2023-07-30T03:58:41;100632.97;;;17.99;76.94
81387;BME280;70842;50.744;7.114;2023-07-30T04:01:07;100630.84;;;17.94;76.97
81387;BME280;70842;50.744;7.114;2023-07-30T04:03:35;100633.66;;;17.92;77.60
81387;BME280;70842;50.744;7.114;2023-07-30T04:06:01;100625.97;;;17.98;76.92
81387;BME280;70842;50.744;7.114;2023-07-30T04:08:28;100623.97;;;17.83;77.20
81387;BME280;70842;50.744;7.114;2023-07-30T04:10:54;100627.72;;;17.50;77.92
81387;BME280;70842;50.744;7.114;2023-07-30T04:13:21;100640.28;;;17.50;78.09
81387;BME280;70842;50.744;7.114;2023-07-30T04:15:48;100647.31;;;17.35;78.53
81387;BME280;70842;50.744;7.114;2023-07-30T04:18:14;100642.75;;;17.75;77.46
81387;BME280;70842;50.744;7.114;2023-07-30T04:20:40;100645.28;;;17.69;76.56
81387;BME280;70842;50.744;7.114;2023-07-30T04:23:07;100652.41;;;18.01;76.87
81387;BME280;70842;50.744;7.114;2023-07-30T04:25:33;100650.88;;;18.14;75.84
81387;BME280;70842;50.744;7.114;2023-07-30T04:28:00;100660.09;;;18.12;75.83
81387;BME280;70842;50.744;7.114;2023-07-30T04:30:26;100653.41;;;18.08;74.84
81387;BME280;70842;50.744;7.114;2023-07-30T04:32:52;100662.44;;;18.15;75.11
81387;BME280;70842;50.744;7.114;2023-07-30T04:35:19;100664.09;;;18.24;73.95
81387;BME280;70842;50.744;7.114;2023-07-30T04:37:45;100661.63;;;18.06;73.20
81387;BME280;70842;50.744;7.114;2023-07-30T04:40:12;100669.34;;;18.01;73.45
81387;BME280;70842;50.744;7.114;2023-07-30T04:42:38;100671.06;;;17.94;73.65
81387;BME280;70842;50.744;7.114;2023-07-30T04:45:05;100662.03;;;17.79;73.79
81387;BME280;70842;50.744;7.114;2023-07-30T04:47:31;100665.72;;;17.70;70.70
81387;BME280;70842;50.744;7.114;2023-07-30T04:49:58;100677.72;;;17.90;71.78
81387;BME280;70842;50.744;7.114;2023-07-30T04:52:24;100662.19;;;17.77;72.47
81387;BME280;70842;50.744;7.114;2023-07-30T04:54:50;100665.63;;;18.10;71.79
81387;BME280;70842;50.744;7.114;2023-07-30T04:57:17;100662.00;;;17.87;70.32
81387;BME280;70842;50.744;7.114;2023-07-30T04:59:43;100670.50;;;18.07;69.57
81387;BME280;70842;50.744;7.114;2023-07-30T05:02:10;100667.88;;;17.82;68.33
81387;BME280;70842;50.744;7.114;2023-07-30T05:04:36;100663.63;;;18.12;68.41
81387;BME280;70842;50.744;7.114;2023-07-30T05:07:03;100662.03;;;17.71;68.53
81387;BME280;70842;50.744;7.114;2023-07-30T05:09:29;100666.22;;;17.73;67.59
81387;BME280;70842;50.744;7.114;2023-07-30T05:11:55;100667.56;;;17.69;67.86
81387;BME280;70842;50.744;7.114;2023-07-30T05:14:22;100661.88;;;17.72;67.94
81387;BME280;70842;50.744;7.114;2023-07-30T05:16:48;100653.31;;;17.85;67.26
81387;BME280;70842;50.744;7.114;2023-07-30T05:19:16;100663.00;;;17.94;66.68
81387;BME280;70842;50.744;7.114;2023-07-30T05:21:42;100656.13;;;18.00;67.62
81387;BME280;70842;50.744;7.114;2023-07-30T05:24:09;100658.47;;;17.94;66.59
81387;BME280;70842;50.744;7.114;2023-07-30T05:26:35;100654.28;;;17.84;66.56
81387;BME280;70842;50.744;7.114;2023-07-30T05:29:02;100658.22;;;17.57;67.76
81387;BME280;70842;50.744;7.114;2023-07-30T05:31:29;100656.50;;;17.80;67.84
81387;BME280;70842;50.744;7.114;2023-07-30T05:34:05;100657.28;;;17.97;67.03
81387;BME280;70842;50.744;7.114;2023-07-30T05:36:51;100662.06;;;18.18;66.84
81387;BME280;70842;50.744;7.114;2023-07-30T05:39:18;100665.19;;;17.90;66.16
81387;BME280;70842;50.744;7.114;2023-07-30T05:41:53;100667.22;;;17.80;66.40
81387;BME280;70842;50.744;7.114;2023-07-30T05:44:20;100668.56;;;17.76;66.77
81387;BME280;70842;50.744;7.114;2023-07-30T05:46:46;100659.22;;;17.64;66.96
81387;BME280;70842;50.744;7.114;2023-07-30T05:49:12;100661.84;;;17.88;66.29
81387;BME280;70842;50.744;7.114;2023-07-30T05:51:40;100662.09;;;18.10;66.93
81387;BME280;70842;50.744;7.114;2023-07-30T05:54:07;100658.78;;;18.00;66.23
81387;BME280;70842;50.744;7.114;2023-07-30T05:56:33;100655.47;;;17.89;66.18
81387;BME280;70842;50.744;7.114;2023-07-30T05:59:00;100657.97;;;18.38;65.14
81387;BME280;70842;50.744;7.114;2023-07-30T06:01:26;100663.53;;;18.44;66.03
81387;BME280;70842;50.744;7.114;2023-07-30T06:03:53;100666.91;;;18.22;65.11
81387;BME280;70842;50.744;7.114;2023-07-30T06:06:19;100669.13;;;18.19;65.87
81387;BME280;70842;50.744;7.114;2023-07-30T06:08:53;100675.69;;;18.08;65.95
81387;BME280;70842;50.744;7.114;2023-07-30T06:11:20;100681.66;;;18.26;65.28
81387;BME280;70842;50.744;7.114;2023-07-30T06:13:47;100680.03;;;18.17;66.38
81387;BME280;70842;50.744;7.114;2023-07-30T06:16:14;100686.28;;;18.02;66.88
81387;BME280;70842;50.744;7.114;2023-07-30T06:18:41;100685.56;;;18.08;66.42
81387;BME280;70842;50.744;7.114;2023-07-30T06:21:07;100680.41;;;17.98;66.75
81387;BME280;70842;50.744;7.114;2023-07-30T06:23:34;100688.59;;;18.13;66.23
81387;BME280;70842;50.744;7.114;2023-07-30T06:26:00;100689.63;;;18.04;66.33
81387;BME280;70842;50.744;7.114;2023-07-30T06:28:26;100695.03;;;17.87;66.50
81387;BME280;70842;50.744;7.114;2023-07-30T06:30:53;100699.03;;;17.91;66.46
81387;BME280;70842;50.744;7.114;2023-07-30T06:33:19;100705.38;;;17.90;67.64
81387;BME280;70842;50.744;7.114;2023-07-30T06:35:46;100699.47;;;18.11;67.83
81387;BME280;70842;50.744;7.114;2023-07-30T06:38:12;100697.41;;;17.66;68.14
81387;BME280;70842;50.744;7.114;2023-07-30T06:40:38;100703.75;;;17.57;68.40
81387;BME280;70842;50.744;7.114;2023-07-30T06:43:05;100706.09;;;17.60;68.83
81387;BME280;70842;50.744;7.114;2023-07-30T06:45:31;100717.16;;;17.65;68.00
81387;BME280;70842;50.744;7.114;2023-07-30T06:47:57;100718.31;;;17.55;69.91
81387;BME280;70842;50.744;7.114;2023-07-30T06:50:24;100720.19;;;17.70;70.14
81387;BME280;70842;50.744;7.114;2023-07-30T06:52:50;100721.66;;;17.81;72.49
81387;BME280;70842;50.744;7.114;2023-07-30T06:55:17;100745.59;;;17.90;73.07
81387;BME280;70842;50.744;7.114;2023-07-30T06:57:43;100752.75;;;17.17;74.41
81387;BME280;70842;50.744;7.114;2023-07-30T07:00:10;100749.44;;;16.82;75.79
81387;BME280;70842;50.744;7.114;2023-07-30T07:02:37;100755.63;;;17.32;74.94
81387;BME280;70842;50.744;7.114;2023-07-30T07:05:04;100755.13;;;17.37;74.65
81387;BME280;70842;50.744;7.114;2023-07-30T07:07:31;100757.25;;;17.09;76.85
81387;BME280;70842;50.744;7.114;2023-07-30T07:09:57;100756.66;;;17.47;75.49
81387;BME280;70842;50.744;7.114;2023-07-30T07:12:24;100751.38;;;17.05;75.56
81387;BME280;70842;50.744;7.114;2023-07-30T07:14:50;100757.59;;;17.22;75.60
81387;BME280;70842;50.744;7.114;2023-07-30T07:17:16;100745.13;;;16.89;76.80
81387;BME280;70842;50.744;7.114;2023-07-30T07:19:43;100748.09;;;17.36;75.12
81387;BME280;70842;50.744;7.114;2023-07-30T07:22:09;100751.78;;;16.77;77.07
81387;BME280;70842;50.744;7.114;2023-07-30T07:24:36;100751.56;;;17.12;77.41
81387;BME280;70842;50.744;7.114;2023-07-30T07:27:02;100751.44;;;16.80;77.51
81387;BME280;70842;50.744;7.114;2023-07-30T07:29:29;100753.22;;;16.63;77.80
81387;BME280;70842;50.744;7.114;2023-07-30T07:31:55;100743.63;;;16.86;77.86
81387;BME280;70842;50.744;7.114;2023-07-30T07:34:22;100745.53;;;16.60;77.64
81387;BME280;70842;50.744;7.114;2023-07-30T07:36:48;100747.13;;;16.87;77.13
81387;BME280;70842;50.744;7.114;2023-07-30T07:39:15;100741.03;;;17.27;76.03
81387;BME280;70842;50.744;7.114;2023-07-30T07:41:41;100743.69;;;17.10;76.64
81387;BME280;70842;50.744;7.114;2023-07-30T07:44:07;100740.06;;;16.78;76.97
81387;BME280;70842;50.744;7.114;2023-07-30T07:46:34;100742.84;;;17.10;75.69
81387;BME280;70842;50.744;7.114;2023-07-30T07:49:00;100747.09;;;16.71;76.72
81387;BME280;70842;50.744;7.114;2023-07-30T07:51:27;100748.88;;;17.20;77.06
81387;BME280;70842;50.744;7.114;2023-07-30T07:53:53;100753.72;;;17.00;76.32
81387;BME280;70842;50.744;7.114;2023-07-30T07:56:20;100755.28;;;17.27;75.95
81387;BME280;70842;50.744;7.114;2023-07-30T07:58:46;100754.94;;;17.30;75.68
81387;BME280;70842;50.744;7.114;2023-07-30T08:01:13;100756.19;;;17.60;74.90
81387;BME280;70842;50.744;7.114;2023-07-30T08:03:39;100755.00;;;17.78;75.29
81387;BME280;70842;50.744;7.114;2023-07-30T08:06:06;100751.31;;;17.63;74.33
81387;BME280;70842;50.744;7.114;2023-07-30T08:08:32;100761.00;;;17.56;74.96
81387;BME280;70842;50.744;7.114;2023-07-30T08:11:04;100753.53;;;18.55;72.43
81387;BME280;70842;50.744;7.114;2023-07-30T08:13:31;100758.69;;;17.77;73.51
81387;BME280;70842;50.744;7.114;2023-07-30T08:15:57;100753.28;;;18.26;72.70
81387;BME280;70842;50.744;7.114;2023-07-30T08:18:24;100751.09;;;18.13;72.23
81387;BME280;70842;50.744;7.114;2023-07-30T08:20:50;100754.38;;;18.47;72.13
81387;BME280;70842;50.744;7.114;2023-07-30T08:23:16;100756.13;;;18.16;72.44
81387;BME280;70842;50.744;7.114;2023-07-30T08:25:43;100756.28;;;18.23;73.81
81387;BME280;70842;50.744;7.114;2023-07-30T08:28:09;100757.34;;;17.73;73.95
81387;BME280;70842;50.744;7.114;2023-07-30T08:30:36;100760.84;;;17.98;73.46
81387;BME280;70842;50.744;7.114;2023-07-30T08:33:03;100758.47;;;18.11;73.86
81387;BME280;70842;50.744;7.114;2023-07-30T08:35:29;100766.22;;;18.06;73.36
81387;BME280;70842;50.744;7.114;2023-07-30T08:37:55;100760.50;;;18.17;73.92
81387;BME280;70842;50.744;7.114;2023-07-30T08:40:22;100768.00;;;18.30;74.01
81387;BME280;70842;50.744;7.114;2023-07-30T08:42:52;100765.94;;;18.64;69.36
81387;BME280;70842;50.744;7.114;2023-07-30T08:45:19;100775.13;;;19.00;67.92
81387;BME280;70842;50.744;7.114;2023-07-30T08:47:46;100769.31;;;18.50;65.06
81387;BME280;70842;50.744;7.114;2023-07-30T08:50:13;100768.47;;;18.41;65.95
81387;BME280;70842;50.744;7.114;2023-07-30T08:52:40;100768.69;;;18.32;64.92
81387;BME280;70842;50.744;7.114;2023-07-30T08:55:08;100773.72;;;18.19;65.17
81387;BME280;70842;50.744;7.114;2023-07-30T08:57:34;100781.09;;;18.25;65.15
81387;BME280;70842;50.744;7.114;2023-07-30T09:00:09;100771.88;;;18.27;63.71
81387;BME280;70842;50.744;7.114;2023-07-30T09:05:03;100779.31;;;19.03;62.77
81387;BME280;70842;50.744;7.114;2023-07-30T09:07:30;100787.19;;;19.12;62.77
81387;BME280;70842;50.744;7.114;2023-07-30T09:09:56;100781.84;;;19.04;62.88
81387;BME280;70842;50.744;7.114;2023-07-30T09:12:29;100792.97;;;18.93;61.74
81387;BME280;70842;50.744;7.114;2023-07-30T09:14:55;100786.06;;;19.29;61.07
81387;BME280;70842;50.744;7.114;2023-07-30T09:17:22;100787.22;;;19.35;60.65
81387;BME280;70842;50.744;7.114;2023-07-30T09:19:48;100780.81;;;19.44;60.37
81387;BME280;70842;50.744;7.114;2023-07-30T09:22:35;100780.59;;;19.68;59.66
81387;BME280;70842;50.744;7.114;2023-07-30T09:25:07;100790.47;;;19.22;59.24
81387;BME280;70842;50.744;7.114;2023-07-30T09:27:34;100784.13;;;19.15;60.05
81387;BME280;70842;50.744;7.114;2023-07-30T09:30:02;100783.97;;;19.48;59.58
81387;BME280;70842;50.744;7.114;2023-07-30T09:32:34;100793.75;;;19.40;59.09
81387;BME280;70842;50.744;7.114;2023-07-30T09:35:06;100796.75;;;19.45;58.68
81387;BME280;70842;50.744;7.114;2023-07-30T09:37:36;100800.09;;;19.09;58.96
81387;BME280;70842;50.744;7.114;2023-07-30T09:40:14;100799.81;;;19.34;58.08
81387;BME280;70842;50.744;7.114;2023-07-30T09:42:46;100803.38;;;19.58;57.53
81387;BME280;70842;50.744;7.114;2023-07-30T09:45:24;100798.53;;;19.76;57.51
81387;BME280;70842;50.744;7.114;2023-07-30T09:47:52;100799.84;;;19.80;58.16
81387;BME280;70842;50.744;7.114;2023-07-30T09:50:18;100803.66;;;20.08;58.03
81387;BME280;70842;50.744;7.114;2023-07-30T09:52:45;100800.63;;;19.88;57.39
81387;BME280;70842;50.744;7.114;2023-07-30T09:55:12;100796.13;;;19.35;57.81
81387;BME280;70842;50.744;7.114;2023-07-30T09:57:39;100799.47;;;19.37;57.87
81387;BME280;70842;50.744;7.114;2023-07-30T10:00:06;100810.59;;;19.80;56.68
81387;BME280;70842;50.744;7.114;2023-07-30T10:02:40;100807.31;;;20.30;56.26
81387;BME280;70842;50.744;7.114;2023-07-30T10:05:17;100804.88;;;19.83;55.27
81387;BME280;70842;50.744;7.114;2023-07-30T10:07:59;100801.63;;;19.87;55.26
81387;BME280;70842;50.744;7.114;2023-07-30T10:10:28;100808.75;;;20.69;55.73
81387;BME280;70842;50.744;7.114;2023-07-30T10:13:00;100801.22;;;20.36;54.56
81387;BME280;70842;50.744;7.114;2023-07-30T10:15:29;100801.28;;;19.90;54.03
81387;BME280;70842;50.744;7.114;2023-07-30T10:17:56;100796.63;;;19.84;53.17
81387;BME280;70842;50.744;7.114;2023-07-30T10:20:27;100804.16;;;20.26;52.88
81387;BME280;70842;50.744;7.114;2023-07-30T10:22:57;100808.56;;;20.19;51.95
81387;BME280;70842;50.744;7.114;2023-07-30T10:25:42;100803.03;;;19.98;51.59
81387;BME280;70842;50.744;7.114;2023-07-30T10:28:26;100804.84;;;20.57;51.52
81387;BME280;70842;50.744;7.114;2023-07-30T10:30:58;100802.06;;;20.51;51.01
81387;BME280;70842;50.744;7.114;2023-07-30T10:33:47;100795.56;;;20.74;50.13
81387;BME280;70842;50.744;7.114;2023-07-30T10:36:30;100795.56;;;20.74;50.68
81387;BME280;70842;50.744;7.114;2023-07-30T10:38:57;100804.38;;;20.02;50.30
81387;BME280;70842;50.744;7.114;2023-07-30T10:41:23;100797.97;;;20.03;51.43
81387;BME280;70842;50.744;7.114;2023-07-30T10:43:50;100806.53;;;20.58;50.28
81387;BME280;70842;50.744;7.114;2023-07-30T10:46:18;100802.72;;;20.67;49.61
81387;BME280;70842;50.744;7.114;2023-07-30T10:48:46;100809.56;;;20.55;50.23
81387;BME280;70842;50.744;7.114;2023-07-30T10:51:15;100808.75;;;20.84;49.87
81387;BME280;70842;50.744;7.114;2023-07-30T10:53:43;100808.88;;;20.61;49.35
81387;BME280;70842;50.744;7.114;2023-07-30T10:56:10;100806.03;;;20.98;48.52
81387;BME280;70842;50.744;7.114;2023-07-30T10:58:40;100809.84;;;21.19;49.78
81387;BME280;70842;50.744;7.114;2023-07-30T11:01:09;100800.47;;;21.15;47.69
81387;BME280;70842;50.744;7.114;2023-07-30T11:03:36;100808.28;;;20.80;46.74
81387;BME280;70842;50.744;7.114;2023-07-30T11:06:05;100800.97;;;21.60;48.00
81387;BME280;70842;50.744;7.114;2023-07-30T11:08:35;100792.38;;;21.71;47.36
81387;BME280;70842;50.744;7.114;2023-07-30T11:11:03;100792.13;;;21.45;47.41
81387;BME280;70842;50.744;7.114;2023-07-30T11:13:43;100796.94;;;21.71;46.56
81387;BME280;70842;50.744;7.114;2023-07-30T11:16:12;100790.56;;;21.57;46.59
81387;BME280;70842;50.744;7.114;2023-07-30T11:18:40;100790.28;;;21.88;45.63
81387;BME280;70842;50.744;7.114;2023-07-30T11:21:12;100786.31;;;21.84;44.77
81387;BME280;70842;50.744;7.114;2023-07-30T11:23:43;100794.75;;;21.81;43.98
81387;BME280;70842;50.744;7.114;2023-07-30T11:26:14;100791.16;;;21.95;44.52
81387;BME280;70842;50.744;7.114;2023-07-30T11:28:41;100802.50;;;21.69;45.73
81387;BME280;70842;50.744;7.114;2023-07-30T11:31:12;100802.34;;;21.92;45.94
81387;BME280;70842;50.744;7.114;2023-07-30T11:33:43;100804.06;;;21.78;44.54
81387;BME280;70842;50.744;7.114;2023-07-30T11:36:12;100802.34;;;21.92;44.70
81387;BME280;70842;50.744;7.114;2023-07-30T11:38:40;100795.25;;;21.70;43.22
81387;BME280;70842;50.744;7.114;2023-07-30T11:41:08;100803.38;;;21.91;44.47
81387;BME280;70842;50.744;7.114;2023-07-30T11:43:37;100812.09;;;21.72;45.27
81387;BME280;70842;50.744;7.114;2023-07-30T11:46:15;100806.03;;;21.49;44.78
81387;BME280;70842;50.744;7.114;2023-07-30T11:48:46;100802.84;;;21.60;44.71
81387;BME280;70842;50.744;7.114;2023-07-30T11:58:43;100804.63;;;21.53;44.57
81387;BME280;70842;50.744;7.114;2023-07-30T12:01:10;100817.03;;;21.47;44.40
81387;BME280;70842;50.744;7.114;2023-07-30T12:03:37;100809.78;;;21.69;44.55
81387;BME280;70842;50.744;7.114;2023-07-30T12:06:05;100809.34;;;21.87;44.13
81387;BME280;70842;50.744;7.114;2023-07-30T12:08:34;100801.56;;;21.56;44.39
81387;BME280;70842;50.744;7.114;2023-07-30T12:11:05;100814.09;;;21.85;44.30
81387;BME280;70842;50.744;7.114;2023-07-30T12:13:32;100821.69;;;21.39;44.52
81387;BME280;70842;50.744;7.114;2023-07-30T12:15:59;100818.19;;;21.81;44.24
81387;BME280;70842;50.744;7.114;2023-07-30T12:18:26;100817.75;;;21.56;43.71
81387;BME280;70842;50.744;7.114;2023-07-30T12:20:55;100814.78;;;21.72;43.01
81387;BME280;70842;50.744;7.114;2023-07-30T12:23:22;100818.19;;;21.81;43.69
81387;BME280;70842;50.744;7.114;2023-07-30T12:25:48;100821.84;;;21.73;42.77
81387;BME280;70842;50.744;7.114;2023-07-30T12:28:15;100809.16;;;21.67;42.90
81387;BME280;70842;50.744;7.114;2023-07-30T12:30:41;100817.91;;;21.90;43.55
81387;BME280;70842;50.744;7.114;2023-07-30T12:33:08;100820.31;;;21.64;44.22
81387;BME280;70842;50.744;7.114;2023-07-30T12:35:34;100826.72;;;21.42;44.66
81387;BME280;70842;50.744;7.114;2023-07-30T12:38:01;100828.09;;;21.52;45.55
81387;BME280;70842;50.744;7.114;2023-07-30T12:40:27;100827.28;;;21.94;45.19
81387;BME280;70842;50.744;7.114;2023-07-30T12:43:01;100826.88;;;21.97;44.54
81387;BME280;70842;50.744;7.114;2023-07-30T12:45:31;100819.53;;;22.12;43.88
81387;BME280;70842;50.744;7.114;2023-07-30T12:47:58;100821.38;;;22.05;44.72
81387;BME280;70842;50.744;7.114;2023-07-30T12:50:24;100826.75;;;22.95;43.03
81387;BME280;70842;50.744;7.114;2023-07-30T12:52:51;100817.28;;;22.65;42.00
81387;BME280;70842;50.744;7.114;2023-07-30T12:55:17;100831.75;;;22.91;42.54
81387;BME280;70842;50.744;7.114;2023-07-30T12:57:43;100829.59;;;22.80;41.32
81387;BME280;70842;50.744;7.114;2023-07-30T13:00:10;100820.31;;;22.06;42.61
81387;BME280;70842;50.744;7.114;2023-07-30T13:02:37;100820.75;;;22.31;43.35